Terminal Aerodrome Forecast
Issued by NWS

Home | Current Version | Previous Version | Text Only | Print | Product List | Glossary On
Versions: 1 2 3 4 5 6 7 8 9 10 11 12 13 14 15 16 17 18 19 20 21 22 23 24 25 26 27
000
FTPQ31 PGUM 301720
TAFGUM
TAF

TAF
PGSN 301720Z 3018/3118 07012G20KT P6SM VCSH SCT018 SCT030 BKN120
      TEMPO 3018/3022 08018G32KT 5SM SHRA SCT016 BKN025 OVC050
     FM310100 08018G28KT P6SM VCSH SCT020 SCT035 BKN120=

USA.gov is the U.S. government's official web portal to all federal, state and local government web resources and services.